Time;durP1;ratioP1;P1;durP2;ratioP2;P2;SDS_P1;SDS_P2;PMS_P1;PMS_P2;Temp;Humidity;BMP_temperature;BMP_pressure;BME280_temperature;BME280_humidity;BME280_pressure;Samples;Min_cycle;Max_cycle;Signal;HPM_P1;HPM_P2
2023/01/04 00:01:52;;;;;;;4.20;1.70;;;8.50;88.50;;;;;;9177516;19;20335;-68
2023/01/04 00:04:56;;;;;;;12.38;2.22;;;8.50;88.40;;;;;;9178081;19;20015;-68
2023/01/04 00:08:00;;;;;;;6.18;1.35;;;8.50;88.50;;;;;;9177437;19;20625;-68
2023/01/04 00:11:05;;;;;;;12.00;1.92;;;8.50;88.50;;;;;;9177426;19;20014;-68
2023/01/04 00:14:12;;;;;;;8.45;1.73;;;8.50;88.40;;;;;;9176567;19;20022;-69
2023/01/04 00:17:17;;;;;;;5.78;2.10;;;8.50;88.40;;;;;;9172700;19;20014;-68
2023/01/04 00:20:21;;;;;;;4.05;1.60;;;8.60;88.50;;;;;;9175984;19;20034;-69
2023/01/04 00:23:25;;;;;;;6.78;1.42;;;8.50;88.40;;;;;;9176895;19;20018;-69
2023/01/04 00:26:30;;;;;;;10.23;1.70;;;8.60;88.40;;;;;;9176820;19;20019;-69
2023/01/04 00:29:35;;;;;;;12.00;2.40;;;8.60;88.40;;;;;;9174641;19;20479;-68
2023/01/04 00:32:41;;;;;;;8.45;2.03;;;8.60;88.50;;;;;;9175813;19;20015;-69
2023/01/04 00:35:44;;;;;;;9.88;2.10;;;8.60;88.40;;;;;;9175606;19;20034;-69
2023/01/04 00:39:05;;;;;;;7.38;1.52;;;8.70;88.40;;;;;;9184873;19;20026;-69
2023/01/04 00:42:09;;;;;;;9.20;1.90;;;8.70;88.40;;;;;;9182437;19;20019;-69
2023/01/04 00:45:14;;;;;;;6.95;1.83;;;8.70;88.40;;;;;;9184288;19;20029;-69
2023/01/04 00:48:20;;;;;;;6.43;1.88;;;8.70;88.40;;;;;;9181985;19;20831;-67
2023/01/04 00:51:24;;;;;;;8.10;2.45;;;8.70;88.40;;;;;;9177880;19;20518;-69
2023/01/04 00:54:27;;;;;;;8.20;2.13;;;8.70;88.40;;;;;;9182959;19;20465;-69
2023/01/04 00:57:31;;;;;;;6.40;1.42;;;8.70;88.40;;;;;;9183762;19;20019;-68
2023/01/04 01:00:36;;;;;;;6.05;2.03;;;8.70;88.40;;;;;;9183704;19;20018;-69
2023/01/04 01:03:43;;;;;;;6.45;1.52;;;8.80;88.50;;;;;;9183375;19;20034;-69
2023/01/04 01:06:47;;;;;;;11.35;1.98;;;8.80;88.50;;;;;;9183145;19;20007;-69
2023/01/04 01:09:51;;;;;;;16.13;2.05;;;8.80;88.50;;;;;;9183461;19;20506;-69
2023/01/04 01:12:55;;;;;;;8.13;1.83;;;8.80;88.50;;;;;;9182394;19;20022;-67
2023/01/04 01:16:02;;;;;;;;;;;8.80;88.50;;;;;;9182197;19;20500;-67
2023/01/04 01:19:08;;;;;;;8.00;1.77;;;8.80;88.40;;;;;;9183598;19;19922;-67
2023/01/04 01:22:12;;;;;;;14.77;2.03;;;8.80;88.40;;;;;;9182736;19;20471;-68
2023/01/04 01:25:16;;;;;;;3.97;1.70;;;8.80;88.50;;;;;;9179864;19;20038;-68
2023/01/04 01:28:19;;;;;;;8.38;1.90;;;8.80;88.50;;;;;;9182646;19;20367;-68
2023/01/04 01:31:25;;;;;;;8.10;1.88;;;8.80;88.50;;;;;;9182845;19;20006;-67
2023/01/04 01:34:31;;;;;;;11.98;1.85;;;8.80;88.60;;;;;;9182615;19;20480;-68
2023/01/04 01:37:35;;;;;;;4.55;1.58;;;8.80;88.60;;;;;;9177238;19;20010;-68
2023/01/04 01:40:42;;;;;;;7.22;1.55;;;8.80;88.60;;;;;;9183171;19;20042;-68
2023/01/04 01:43:50;;;;;;;5.22;1.73;;;8.80;88.70;;;;;;9182072;19;20025;-68
2023/01/04 01:46:56;;;;;;;11.05;1.85;;;8.80;88.70;;;;;;9181141;19;20014;-68
2023/01/04 01:50:03;;;;;;;7.75;1.98;;;8.80;88.70;;;;;;9177353;19;20014;-69
2023/01/04 01:53:09;;;;;;;6.18;2.10;;;8.80;88.70;;;;;;9181905;19;20018;-68
2023/01/04 01:56:17;;;;;;;7.05;2.08;;;8.80;88.70;;;;;;9181589;19;20022;-67
2023/01/04 01:59:22;;;;;;;7.70;1.92;;;8.80;88.80;;;;;;9179633;19;20015;-67
2023/01/04 02:02:26;;;;;;;7.85;1.85;;;8.80;88.80;;;;;;9181028;19;20015;-67
2023/01/04 02:05:34;;;;;;;4.22;1.73;;;8.80;88.90;;;;;;9182222;19;20034;-67
2023/01/04 02:08:40;;;;;;;7.07;1.40;;;8.80;88.90;;;;;;9178265;19;20034;-67
2023/01/04 02:11:44;;;;;;;7.35;1.58;;;8.80;88.90;;;;;;9181218;19;20010;-67
2023/01/04 02:14:51;;;;;;;8.18;2.25;;;8.80;89.00;;;;;;9181512;19;20007;-67
2023/01/04 02:18:02;;;;;;;11.88;2.30;;;8.80;89.00;;;;;;9181322;19;20021;-68
2023/01/04 02:21:15;;;;;;;5.75;1.80;;;8.80;89.10;;;;;;9180651;19;20102;-68
2023/01/04 02:24:40;;;;;;;9.25;1.70;;;8.90;89.20;;;;;;9180553;19;20011;-67
2023/01/04 02:27:53;;;;;;;8.38;1.90;;;8.90;89.30;;;;;;9179029;19;20010;-67
2023/01/04 02:31:28;;;;;;;3.40;1.30;;;8.90;89.30;;;;;;9180249;19;20007;-67
2023/01/04 02:34:40;;;;;;;4.80;1.70;;;8.90;89.30;;;;;;9179060;19;20378;-68
2023/01/04 02:37:51;;;;;;;6.25;1.83;;;8.90;89.40;;;;;;9181042;19;20049;-66
2023/01/04 02:41:02;;;;;;;1.83;1.27;;;8.90;89.30;;;;;;9178572;19;20081;-66
2023/01/04 02:50:54;;;;;;;2.83;1.30;;;9.00;89.50;;;;;;9175762;19;20026;-68
2023/01/04 02:54:01;;;;;;;3.50;1.30;;;9.00;89.50;;;;;;9179829;19;20018;-66
2023/01/04 02:57:20;;;;;;;2.28;1.40;;;9.00;89.60;;;;;;9176742;19;20718;-66
2023/01/04 03:06:14;;;;;;;4.70;1.52;;;9.00;89.70;;;;;;9178036;19;20029;-66
2023/01/04 03:07:47;;;;;;;5.85;1.42;;;9.10;89.80;;;;;;9179432;19;20011;-68
2023/01/04 03:10:57;;;;;;;5.22;2.25;;;9.10;89.80;;;;;;9179208;19;20017;-66
2023/01/04 03:14:04;;;;;;;2.35;1.50;;;9.10;89.90;;;;;;9179451;19;20026;-68
2023/01/04 03:17:31;;;;;;;4.28;1.60;;;9.20;90.00;;;;;;9175709;19;20021;-67
2023/01/04 03:20:37;;;;;;;3.72;1.80;;;9.30;90.00;;;;;;9178244;19;20022;-66
2023/01/04 03:37:20;;;;;;;6.35;1.42;;;9.40;90.00;;;;;;9175441;19;20056;-68
2023/01/04 03:50:46;;;;;;;2.78;1.23;;;9.60;90.10;;;;;;9171517;19;20026;-67
2023/01/04 03:53:58;;;;;;;6.32;1.25;;;9.60;90.10;;;;;;9177509;19;20022;-67
2023/01/04 03:57:02;;;;;;;3.10;1.20;;;9.70;90.20;;;;;;9174453;19;20041;-69
2023/01/04 04:00:10;;;;;;;2.90;1.35;;;9.70;90.20;;;;;;9177248;19;20014;-67
2023/01/04 04:03:14;;;;;;;2.53;1.02;;;9.70;90.20;;;;;;9174293;19;20010;-67
2023/01/04 04:09:36;;;;;;;4.57;1.10;;;9.80;90.20;;;;;;9176983;19;19974;-68
2023/01/04 04:12:40;;;;;;;4.10;1.50;;;9.80;90.20;;;;;;9177228;19;20014;-68
2023/01/04 04:15:44;;;;;;;4.53;1.48;;;9.90;90.20;;;;;;9176214;19;20018;-68
2023/01/04 04:18:48;;;;;;;;;;;9.90;90.20;;;;;;9177365;19;20030;-68
2023/01/04 04:21:52;;;;;;;1.25;1.05;;;9.90;90.20;;;;;;9175595;19;20439;-68
2023/01/04 04:24:57;;;;;;;1.23;1.13;;;10.00;90.20;;;;;;9176745;19;20376;-68
2023/01/04 04:28:01;;;;;;;3.13;1.02;;;10.00;90.20;;;;;;9176641;19;20019;-68
2023/01/04 04:31:05;;;;;;;1.23;0.90;;;10.00;90.30;;;;;;9174330;19;20364;-68
2023/01/04 04:34:10;;;;;;;1.85;1.20;;;10.00;90.30;;;;;;9176725;19;20049;-68
2023/01/04 04:37:14;;;;;;;3.03;1.38;;;10.10;90.30;;;;;;9173953;19;20019;-68
2023/01/04 04:43:37;;;;;;;1.95;1.13;;;10.10;90.30;;;;;;9176764;19;20010;-68
2023/01/04 04:46:41;;;;;;;3.03;1.23;;;10.10;90.30;;;;;;9175413;19;20580;-68
2023/01/04 04:49:44;;;;;;;1.02;0.93;;;10.20;90.40;;;;;;9167661;19;20019;-69
2023/01/04 04:52:48;;;;;;;2.10;0.98;;;10.20;90.40;;;;;;9176163;19;20037;-68
2023/01/04 04:56:01;;;;;;;2.25;1.20;;;10.20;90.40;;;;;;9174218;19;20006;-68
2023/01/04 04:59:05;;;;;;;2.90;1.27;;;10.30;90.40;;;;;;9172421;19;20018;-68
2023/01/04 05:02:09;;;;;;;1.73;1.30;;;10.30;90.40;;;;;;9175124;19;20118;-68
2023/01/04 05:05:12;;;;;;;;;;;10.30;90.40;;;;;;9175567;19;20042;-68
2023/01/04 05:08:16;;;;;;;1.67;1.23;;;10.30;90.40;;;;;;9175023;19;19964;-68
2023/01/04 05:12:58;;;;;;;2.63;1.40;;;10.30;90.40;;;;;;9174983;19;20546;-68
2023/01/04 05:14:44;;;;;;;3.67;1.42;;;10.40;90.40;;;;;;9174577;19;20011;-68
2023/01/04 05:17:48;;;;;;;2.72;1.25;;;10.40;90.40;;;;;;9171080;19;20030;-68
2023/01/04 05:20:52;;;;;;;1.40;1.30;;;10.40;90.50;;;;;;9174147;19;20010;-68
2023/01/04 05:23:55;;;;;;;1.50;1.40;;;10.40;90.50;;;;;;9182421;19;20018;-68
2023/01/04 05:27:01;;;;;;;1.58;1.13;;;10.50;90.50;;;;;;9182199;19;20018;-68
2023/01/04 05:33:24;;;;;;;3.20;1.50;;;10.50;90.60;;;;;;9182264;19;20034;-68
2023/01/04 05:36:28;;;;;;;2.40;1.30;;;10.50;90.60;;;;;;9180453;19;20035;-68
2023/01/04 05:39:31;;;;;;;1.67;1.25;;;10.60;90.60;;;;;;9182427;19;20019;-68
2023/01/04 05:42:37;;;;;;;2.58;1.58;;;10.60;90.60;;;;;;9182564;19;20006;-68
2023/01/04 05:45:41;;;;;;;4.03;1.85;;;10.60;90.60;;;;;;9180860;19;20042;-68
2023/01/04 05:48:45;;;;;;;2.90;1.50;;;10.60;90.60;;;;;;9179498;19;20034;-68
2023/01/04 05:51:48;;;;;;;2.85;1.33;;;10.60;90.60;;;;;;9177882;19;20033;-68
2023/01/04 05:54:52;;;;;;;1.52;1.30;;;10.70;90.70;;;;;;9180510;19;20930;-68
2023/01/04 05:57:58;;;;;;;2.38;1.35;;;10.70;90.70;;;;;;9178793;19;20007;-68
2023/01/04 06:01:01;;;;;;;1.77;1.45;;;10.70;90.70;;;;;;9181666;19;20014;-68
2023/01/04 06:04:05;;;;;;;1.30;1.20;;;10.70;90.70;;;;;;9180056;19;20093;-68
2023/01/04 06:07:10;;;;;;;3.05;1.70;;;;;;;;;;9176709;19;20019;-68
2023/01/04 06:10:15;;;;;;;2.40;1.20;;;10.80;90.50;;;;;;9177180;19;20121;-68
2023/01/04 06:13:20;;;;;;;1.63;1.10;;;10.80;91.00;;;;;;9176783;19;20015;-68
2023/01/04 06:16:24;;;;;;;1.88;1.38;;;10.80;90.70;;;;;;9174264;19;20980;-68
2023/01/04 06:19:28;;;;;;;;;;;10.90;90.70;;;;;;9177626;19;20501;-68
2023/01/04 06:22:32;;;;;;;2.03;1.20;;;10.90;90.70;;;;;;9181476;19;19924;-68
2023/01/04 06:25:35;;;;;;;;;;;10.90;90.70;;;;;;9181125;19;20014;-68
2023/01/04 06:28:41;;;;;;;1.40;1.00;;;10.90;90.70;;;;;;9180113;19;20288;-69
2023/01/04 06:31:45;;;;;;;3.55;1.40;;;10.90;90.60;;;;;;9181505;19;20026;-68
2023/01/04 06:34:49;;;;;;;3.72;1.50;;;10.90;90.70;;;;;;9177636;19;20348;-68
2023/01/04 06:37:53;;;;;;;1.25;1.10;;;11.00;90.80;;;;;;9176745;19;20445;-67
2023/01/04 06:40:56;;;;;;;1.75;1.20;;;11.00;90.80;;;;;;9180869;19;20017;-68
2023/01/04 06:44:02;;;;;;;1.52;1.30;;;10.90;90.80;;;;;;9180632;19;20027;-69
2023/01/04 06:47:06;;;;;;;1.23;1.13;;;11.00;90.80;;;;;;9180142;19;20371;-68
2023/01/04 06:50:10;;;;;;;2.90;1.23;;;11.00;90.80;;;;;;9174998;19;20029;-68
2023/01/04 06:53:14;;;;;;;2.22;1.27;;;11.00;90.80;;;;;;9179445;19;20086;-67
2023/01/04 06:56:18;;;;;;;1.98;1.30;;;11.00;90.80;;;;;;9178345;19;20031;-67
2023/01/04 06:59:24;;;;;;;1.63;1.20;;;11.10;90.80;;;;;;9179684;19;20041;-67
2023/01/04 07:02:27;;;;;;;1.13;1.10;;;11.10;90.90;;;;;;9178819;19;20018;-67
2023/01/04 07:05:32;;;;;;;2.38;1.17;;;11.10;90.80;;;;;;9179362;19;20490;-68
2023/01/04 07:08:35;;;;;;;2.50;1.20;;;11.10;90.90;;;;;;9178996;19;20030;-68
2023/01/04 07:11:39;;;;;;;;;;;11.10;90.90;;;;;;9169925;19;20023;-68
2023/01/04 07:14:45;;;;;;;1.30;1.20;;;11.20;90.90;;;;;;9171600;19;19922;-68
2023/01/04 07:17:49;;;;;;;1.83;1.20;;;11.20;90.80;;;;;;9166267;19;20023;-67
2023/01/04 07:20:52;;;;;;;3.05;1.13;;;11.20;90.90;;;;;;9166731;19;20052;-69
2023/01/04 07:23:56;;;;;;;2.28;1.23;;;11.20;91.20;;;;;;9167536;19;20018;-68
2023/01/04 07:27:00;;;;;;;1.80;1.52;;;11.20;90.90;;;;;;9170542;19;20033;-67
2023/01/04 07:30:07;;;;;;;2.70;1.40;;;11.20;91.00;;;;;;9170976;19;20026;-68
2023/01/04 07:33:11;;;;;;;1.88;1.38;;;11.20;90.90;;;;;;9171607;19;20035;-68
2023/01/04 07:36:15;;;;;;;3.05;1.40;;;11.20;90.90;;;;;;9173649;19;20052;-68
2023/01/04 07:39:19;;;;;;;1.40;1.30;;;11.20;90.90;;;;;;9175385;19;20351;-67
2023/01/04 07:42:23;;;;;;;4.50;1.80;;;11.30;91.00;;;;;;9178086;19;20018;-69
2023/01/04 07:45:29;;;;;;;2.30;1.75;;;11.30;91.00;;;;;;9176386;19;20018;-66
2023/01/04 07:48:33;;;;;;;2.47;1.92;;;11.30;91.00;;;;;;9172985;19;20400;-68
2023/01/04 07:51:37;;;;;;;2.95;2.20;;;11.30;91.00;;;;;;9174071;19;20010;-67
2023/01/04 07:54:40;;;;;;;3.40;1.90;;;11.40;91.00;;;;;;9177277;19;20014;-68
2023/01/04 07:57:44;;;;;;;2.72;2.13;;;11.40;91.00;;;;;;9171493;19;20022;-68
2023/01/04 08:00:50;;;;;;;3.03;1.95;;;11.40;91.00;;;;;;9173573;19;20017;-68
2023/01/04 08:03:55;;;;;;;4.38;2.50;;;11.40;91.00;;;;;;9163632;19;20022;-69
2023/01/04 08:06:58;;;;;;;2.20;1.90;;;11.50;91.00;;;;;;9170868;19;20042;-65
2023/01/04 08:10:02;;;;;;;3.20;2.30;;;11.50;91.00;;;;;;9168897;19;20479;-68
2023/01/04 08:13:06;;;;;;;5.00;2.33;;;11.50;91.10;;;;;;9170021;19;20418;-67
2023/01/04 08:16:21;;;;;;;3.80;2.17;;;11.50;91.10;;;;;;9170289;19;20019;-68
2023/01/04 08:19:24;;;;;;;3.92;2.28;;;11.50;91.10;;;;;;9170474;19;20019;-68
2023/01/04 08:22:28;;;;;;;4.25;2.40;;;11.60;91.10;;;;;;9171077;19;20364;-68
2023/01/04 08:25:32;;;;;;;;;;;11.60;91.10;;;;;;9176729;19;20011;-69
2023/01/04 08:28:36;;;;;;;4.38;1.88;;;11.60;91.10;;;;;;9173764;19;20328;-69
2023/01/04 08:31:42;;;;;;;2.20;1.73;;;11.60;91.00;;;;;;9169292;19;20030;-69
2023/01/04 08:34:46;;;;;;;5.32;2.08;;;11.60;91.10;;;;;;9170240;19;20028;-69
2023/01/04 08:37:50;;;;;;;5.15;2.10;;;11.60;91.10;;;;;;9165843;19;20474;-73
2023/01/04 08:40:53;;;;;;;2.40;1.52;;;11.70;91.10;;;;;;9168084;19;20022;-70
2023/01/04 08:44:07;;;;;;;3.03;1.95;;;11.70;91.10;;;;;;9167550;19;20019;-68
2023/01/04 08:47:12;;;;;;;;;;;11.70;91.10;;;;;;9175541;19;20581;-68
2023/01/04 08:50:19;;;;;;;3.95;2.10;;;11.70;91.10;;;;;;9164575;19;19923;-68
2023/01/04 08:53:23;;;;;;;9.70;2.10;;;11.70;91.00;;;;;;9167807;19;20015;-69
2023/01/04 08:56:26;;;;;;;2.38;1.90;;;11.70;91.40;;;;;;9165689;19;20018;-69
2023/01/04 08:59:30;;;;;;;7.43;1.80;;;11.80;91.10;;;;;;9181772;19;20018;-68
2023/01/04 09:02:36;;;;;;;2.00;1.80;;;11.80;91.10;;;;;;9177784;19;20078;-69
2023/01/04 09:05:40;;;;;;;4.93;1.60;;;11.80;91.10;;;;;;9178789;19;20011;-69
2023/01/04 09:08:44;;;;;;;3.63;1.58;;;11.80;91.20;;;;;;9175613;19;20025;-69
2023/01/04 09:11:48;;;;;;;2.38;1.52;;;11.80;91.10;;;;;;9180393;19;20452;-69
2023/01/04 09:14:52;;;;;;;6.07;1.52;;;11.80;91.10;;;;;;9176993;19;20025;-69
2023/01/04 09:17:58;;;;;;;3.83;1.55;;;11.80;91.10;;;;;;9172636;19;20046;-69
2023/01/04 09:21:22;;;;;;;1.98;1.70;;;11.80;91.20;;;;;;9178716;19;20014;-68
2023/01/04 09:24:26;;;;;;;4.65;1.48;;;11.90;91.20;;;;;;9176344;19;20471;-69
2023/01/04 09:27:32;;;;;;;;;;;11.90;91.20;;;;;;9177468;19;20070;-69
2023/01/04 09:30:36;;;;;;;2.92;1.38;;;11.90;91.20;;;;;;9174105;19;20442;-69
2023/01/04 09:33:42;;;;;;;;;;;11.90;91.20;;;;;;9176441;19;20050;-67
2023/01/04 09:37:05;;;;;;;3.08;1.52;;;11.90;91.20;;;;;;9171048;19;19925;-68
2023/01/04 09:40:19;;;;;;;4.63;1.73;;;11.90;91.10;;;;;;9172520;19;20035;-67
2023/01/04 09:43:24;;;;;;;;;;;11.90;91.20;;;;;;9174867;19;20463;-68
2023/01/04 09:46:35;;;;;;;2.25;1.00;;;12.00;91.20;;;;;;9175380;19;19918;-68
2023/01/04 09:49:44;;;;;;;2.00;1.50;;;12.00;91.20;;;;;;9173488;19;20121;-67
2023/01/04 09:52:57;;;;;;;2.75;2.08;;;12.00;91.20;;;;;;9180275;19;20039;-68
2023/01/04 09:56:08;;;;;;;4.60;2.08;;;12.00;91.30;;;;;;9179078;19;20010;-69
2023/01/04 09:59:18;;;;;;;1.63;1.30;;;12.00;91.30;;;;;;9180322;19;20022;-68
2023/01/04 10:02:26;;;;;;;1.65;1.20;;;12.00;91.30;;;;;;9180894;19;20086;-69
2023/01/04 10:05:35;;;;;;;6.38;1.30;;;12.10;91.30;;;;;;9180825;19;20030;-67
2023/01/04 10:08:39;;;;;;;1.55;0.98;;;12.00;91.30;;;;;;9180719;19;20042;-68
2023/01/04 10:11:58;;;;;;;3.90;1.15;;;12.10;91.30;;;;;;9180498;19;20033;-66
2023/01/04 10:15:25;;;;;;;1.05;0.73;;;12.10;91.30;;;;;;9180427;19;20022;-68
2023/01/04 10:21:37;;;;;;;3.22;1.00;;;12.10;91.40;;;;;;9218754;19;20583;-68
2023/01/04 10:24:48;;;;;;;1.55;1.10;;;12.20;91.30;;;;;;9216630;19;20025;-68
2023/01/04 10:28:04;;;;;;;1.20;1.05;;;12.20;91.30;;;;;;9217892;19;20852;-68
2023/01/04 10:31:14;;;;;;;3.03;0.88;;;12.20;91.30;;;;;;9138961;19;20018;-68
2023/01/04 10:34:42;;;;;;;1.42;1.00;;;12.30;91.40;;;;;;9218518;19;20014;-69
2023/01/04 10:37:49;;;;;;;3.65;0.90;;;12.30;91.40;;;;;;9218153;19;20007;-67
2023/01/04 10:40:54;;;;;;;1.05;0.85;;;12.30;91.40;;;;;;9192048;19;20018;-68
2023/01/04 10:44:06;;;;;;;0.70;0.70;;;12.40;91.40;;;;;;9066673;19;68076;-68
2023/01/04 10:48:47;;;;;;;1.00;0.80;;;12.40;91.40;;;;;;9133947;19;62186;-69
2023/01/04 10:51:57;;;;;;;1.88;0.80;;;12.40;91.40;;;;;;9146454;19;61761;-67
2023/01/04 10:55:05;;;;;;;2.67;0.70;;;12.40;91.40;;;;;;8075437;19;20886;-69
2023/01/04 10:58:16;;;;;;;0.95;0.88;;;12.40;91.40;;;;;;7896314;19;20095;-68
2023/01/04 11:01:25;;;;;;;2.70;1.38;;;12.50;91.50;;;;;;7884941;19;20021;-68
2023/01/04 11:04:37;;;;;;;1.45;1.30;;;12.50;91.50;;;;;;7884861;19;20368;-69
2023/01/04 11:07:46;;;;;;;5.97;1.00;;;12.50;91.50;;;;;;8732567;19;20033;-67
2023/01/04 11:10:54;;;;;;;1.38;0.98;;;12.50;91.50;;;;;;9147423;19;20029;-69
2023/01/04 13:25:34;;;;;;;7.45;1.90;;;13.00;91.90;;;;;;9200506;19;20643;-69
2023/01/04 13:28:35;;;;;;;11.13;1.30;;;13.00;91.80;;;;;;9204747;19;20019;-69
2023/01/04 13:31:50;;;;;;;7.75;2.33;;;13.10;91.70;;;;;;9210259;19;20022;-69
2023/01/04 13:35:04;;;;;;;;;;;13.10;91.70;;;;;;9212444;19;20692;-69
2023/01/04 13:38:15;;;;;;;6.82;1.90;;;13.10;91.60;;;;;;9210624;19;19955;-69
2023/01/04 13:41:21;;;;;;;9.98;2.50;;;13.10;91.50;;;;;;9212218;19;20029;-69
2023/01/04 13:45:03;;;;;;;7.18;2.30;;;13.10;91.50;;;;;;9210827;19;20022;-69
2023/01/04 13:48:23;;;;;;;10.35;2.63;;;13.00;91.50;;;;;;9208356;19;20454;-69
2023/01/04 13:51:35;;;;;;;11.05;2.03;;;13.10;91.50;;;;;;9205812;19;20066;-69
2023/01/04 13:54:38;;;;;;;13.15;2.78;;;13.10;91.50;;;;;;9212477;19;20018;-69
2023/01/04 13:57:52;;;;;;;12.70;1.92;;;13.10;91.50;;;;;;9209766;19;20428;-69
2023/01/04 14:01:14;;;;;;;14.80;2.53;;;13.00;91.50;;;;;;9211254;19;20018;-69
2023/01/04 14:04:24;;;;;;;9.43;2.25;;;13.10;91.40;;;;;;9210930;19;20018;-69
2023/01/04 14:07:26;;;;;;;8.70;2.22;;;13.10;91.40;;;;;;9210508;19;20035;-69
2023/01/04 14:10:28;;;;;;;12.18;2.15;;;13.10;91.40;;;;;;9192871;19;20026;-69
2023/01/04 14:13:29;;;;;;;10.57;2.10;;;13.10;91.40;;;;;;9207903;19;20028;-69
2023/01/04 14:16:31;;;;;;;8.30;2.13;;;13.10;91.40;;;;;;9210854;19;20379;-69
2023/01/04 14:19:56;;;;;;;14.30;2.13;;;13.10;91.40;;;;;;9207766;19;20026;-69
2023/01/04 14:22:58;;;;;;;12.18;1.80;;;13.10;91.30;;;;;;9208585;19;20369;-69
2023/01/04 14:25:59;;;;;;;16.08;3.03;;;13.10;91.30;;;;;;9210641;19;20022;-69
2023/01/04 14:29:20;;;;;;;14.07;2.05;;;13.10;91.30;;;;;;9208560;19;20018;-69
2023/01/04 14:32:21;;;;;;;10.68;2.28;;;13.10;91.30;;;;;;9210245;19;20018;-69
2023/01/04 14:35:24;;;;;;;14.45;3.72;;;13.10;91.30;;;;;;9191766;19;20026;-69
2023/01/04 14:38:26;;;;;;;10.95;2.08;;;13.10;91.20;;;;;;9175559;19;20019;-69
2023/01/04 14:41:37;;;;;;;11.23;2.40;;;13.20;91.30;;;;;;9175336;19;20019;-69
2023/01/04 14:44:40;;;;;;;10.02;2.60;;;13.20;91.20;;;;;;9170997;19;20021;-69
2023/01/04 14:47:41;;;;;;;12.07;1.88;;;13.20;91.20;;;;;;9172377;19;20023;-68
2023/01/04 14:50:43;;;;;;;13.38;2.75;;;13.20;91.20;;;;;;9169467;19;20022;-68
2023/01/04 14:53:45;;;;;;;12.95;1.98;;;13.20;91.10;;;;;;9173821;19;20055;-70
2023/01/04 14:56:46;;;;;;;10.77;2.30;;;13.20;91.10;;;;;;9175383;19;20086;-69
2023/01/04 14:59:48;;;;;;;6.80;1.33;;;13.20;91.10;;;;;;9172733;19;20086;-69
2023/01/04 15:02:50;;;;;;;10.77;1.75;;;13.20;91.10;;;;;;9173340;19;20007;-69
2023/01/04 15:05:52;;;;;;;9.63;2.23;;;13.20;91.30;;;;;;9173060;19;20022;-69
2023/01/04 15:08:54;;;;;;;12.48;2.10;;;13.20;91.00;;;;;;9173738;19;20374;-68
2023/01/04 15:11:55;;;;;;;12.95;2.30;;;13.20;91.00;;;;;;9173241;19;20014;-69
2023/01/04 15:14:57;;;;;;;21.45;3.13;;;13.20;91.00;;;;;;9173390;19;20026;-68
2023/01/04 15:17:58;;;;;;;14.70;2.78;;;13.20;91.00;;;;;;9171413;19;20470;-68
2023/01/04 15:21:02;;;;;;;15.15;2.75;;;13.20;91.00;;;;;;9174330;19;20475;-69
2023/01/04 15:24:03;;;;;;;13.55;2.25;;;13.20;90.90;;;;;;9170741;19;20018;-69
2023/01/04 15:27:05;;;;;;;9.77;2.05;;;13.20;90.90;;;;;;9173691;19;20089;-69
2023/01/04 15:30:07;;;;;;;15.63;2.25;;;13.20;90.90;;;;;;9173992;19;20023;-69
2023/01/04 15:33:09;;;;;;;19.67;2.53;;;13.20;90.90;;;;;;9173906;19;20042;-68
2023/01/04 15:36:13;;;;;;;12.38;2.45;;;13.20;90.80;;;;;;9173615;19;20033;-68
2023/01/04 15:39:22;;;;;;;16.27;2.80;;;13.20;90.80;;;;;;9171852;19;20019;-69
2023/01/04 15:45:44;;;;;;;14.90;2.47;;;13.20;90.80;;;;;;9173643;19;20015;-69
2023/01/04 15:48:45;;;;;;;15.77;2.13;;;13.10;90.70;;;;;;9168226;19;20070;-68
2023/01/04 15:51:47;;;;;;;8.70;2.05;;;13.10;90.70;;;;;;9168347;19;20018;-70
2023/01/04 15:54:48;;;;;;;10.20;2.15;;;13.10;90.70;;;;;;9170978;19;20140;-68
2023/01/04 15:57:49;;;;;;;18.73;2.33;;;13.00;90.60;;;;;;9170441;19;20033;-70
2023/01/04 16:00:51;;;;;;;8.25;2.22;;;13.00;90.70;;;;;;9167808;19;20363;-69
2023/01/04 16:04:05;;;;;;;15.35;3.40;;;13.00;90.60;;;;;;9157124;19;20026;-70
2023/01/04 16:07:06;;;;;;;17.20;3.37;;;13.00;90.60;;;;;;9163902;19;20057;-68
2023/01/04 16:10:08;;;;;;;12.32;2.17;;;13.00;90.60;;;;;;9166315;19;20488;-70
2023/01/04 16:13:10;;;;;;;12.13;2.75;;;12.90;90.60;;;;;;9168448;19;20026;-68
2023/01/04 16:16:12;;;;;;;9.93;2.72;;;12.90;90.60;;;;;;9165978;19;20029;-70
2023/01/04 16:19:13;;;;;;;20.27;2.45;;;12.90;90.60;;;;;;9163545;19;20392;-69
2023/01/04 16:22:14;;;;;;;19.45;2.60;;;12.90;90.60;;;;;;9164092;19;20389;-69
2023/01/04 16:25:16;;;;;;;17.40;2.95;;;12.90;90.60;;;;;;9159183;19;20019;-69
2023/01/04 16:28:17;;;;;;;13.45;3.00;;;12.90;90.60;;;;;;9162103;19;20021;-69
2023/01/04 16:31:20;;;;;;;15.02;2.67;;;12.90;90.60;;;;;;9168516;19;20019;-69
2023/01/04 16:34:23;;;;;;;8.40;1.90;;;12.90;90.60;;;;;;9171858;19;20023;-69
2023/01/04 16:37:27;;;;;;;21.13;3.72;;;12.90;90.60;;;;;;9171058;19;20628;-69
2023/01/04 16:40:28;;;;;;;26.45;3.63;;;12.90;90.60;;;;;;9168346;19;20025;-68
2023/01/04 16:43:30;;;;;;;19.33;2.85;;;12.80;90.60;;;;;;9171027;19;20056;-68
2023/01/04 16:46:34;;;;;;;14.40;2.72;;;12.80;90.60;;;;;;9171412;19;20025;-70
2023/01/04 16:49:35;;;;;;;10.25;2.63;;;12.80;90.60;;;;;;9164188;19;20029;-68
2023/01/04 16:52:38;;;;;;;15.85;2.83;;;12.90;90.60;;;;;;9171455;19;20998;-69
2023/01/04 16:55:39;;;;;;;14.02;2.70;;;12.90;90.60;;;;;;9169027;19;20038;-69
2023/01/04 16:58:44;;;;;;;19.42;2.72;;;12.90;90.60;;;;;;9169760;19;20019;-70
2023/01/04 17:01:51;;;;;;;19.63;3.22;;;12.90;90.50;;;;;;9170238;19;20026;-68
2023/01/04 17:04:59;;;;;;;13.45;2.28;;;12.90;90.50;;;;;;9167751;19;20026;-69
2023/01/04 17:08:01;;;;;;;21.90;2.92;;;12.90;90.50;;;;;;9169074;19;20018;-69
2023/01/04 17:11:11;;;;;;;19.92;3.15;;;12.90;90.50;;;;;;9166751;19;20057;-68
2023/01/04 17:14:32;;;;;;;18.83;2.80;;;12.90;90.50;;;;;;9170411;19;20129;-68
2023/01/04 17:17:34;;;;;;;21.92;3.40;;;12.90;90.50;;;;;;9168506;19;20028;-68
2023/01/04 17:20:36;;;;;;;20.15;4.03;;;12.90;90.40;;;;;;9169292;19;20018;-68
2023/01/04 17:23:41;;;;;;;24.27;3.42;;;12.90;90.40;;;;;;9169825;19;20018;-68
2023/01/04 17:26:42;;;;;;;19.38;3.03;;;12.90;90.40;;;;;;9168855;19;20030;-70
2023/01/04 17:29:43;;;;;;;20.83;2.45;;;12.90;90.70;;;;;;9169911;19;20364;-70
2023/01/04 17:32:45;;;;;;;19.83;4.15;;;12.90;90.40;;;;;;9170154;19;20368;-68
2023/01/04 17:35:46;;;;;;;32.45;3.83;;;12.90;90.40;;;;;;9169873;19;20014;-68
2023/01/04 17:38:48;;;;;;;18.75;3.33;;;12.90;90.40;;;;;;9167433;19;20026;-70
2023/01/04 17:41:49;;;;;;;27.98;4.57;;;12.90;90.40;;;;;;9167287;19;20015;-70
2023/01/04 17:44:51;;;;;;;42.45;5.05;;;12.90;90.40;;;;;;9165435;19;20046;-69
2023/01/04 17:47:53;;;;;;;29.58;4.40;;;12.90;90.40;;;;;;9168852;19;20015;-68
2023/01/04 17:50:54;;;;;;;23.45;4.20;;;12.90;90.40;;;;;;9162968;19;20108;-68
2023/01/04 17:53:58;;;;;;;30.98;6.65;;;12.90;90.40;;;;;;9166885;19;20025;-68
2023/01/04 17:56:59;;;;;;;;;;;12.90;90.40;;;;;;9169205;19;20027;-69
2023/01/04 18:00:01;;;;;;;29.27;5.28;;;12.90;90.40;;;;;;9167600;19;19922;-70
2023/01/04 18:03:05;;;;;;;30.33;4.72;;;12.90;90.40;;;;;;9167395;19;20019;-70
2023/01/04 18:06:07;;;;;;;32.53;4.03;;;12.90;90.40;;;;;;9166040;19;20050;-69
2023/01/04 18:09:26;;;;;;;30.50;4.00;;;12.90;90.40;;;;;;9165845;19;20110;-68
2023/01/04 18:12:30;;;;;;;20.42;3.75;;;12.80;90.30;;;;;;9174394;19;20018;-70
2023/01/04 18:15:32;;;;;;;19.20;3.65;;;12.80;90.30;;;;;;9174283;19;20082;-70
2023/01/04 18:18:44;;;;;;;29.52;3.78;;;12.80;90.30;;;;;;9176781;19;20014;-68
2023/01/04 18:21:46;;;;;;;32.70;4.15;;;12.80;90.30;;;;;;9176285;19;20018;-68
2023/01/04 18:24:47;;;;;;;37.25;4.28;;;12.80;90.30;;;;;;9172531;19;20026;-68
2023/01/04 18:27:48;;;;;;;25.38;3.50;;;12.80;90.30;;;;;;9175625;19;20055;-69
2023/01/04 18:30:50;;;;;;;35.42;4.15;;;12.80;90.30;;;;;;9174983;19;20037;-70
2023/01/04 18:33:55;;;;;;;21.40;3.45;;;12.80;90.20;;;;;;9176250;19;20014;-70
2023/01/04 18:36:57;;;;;;;23.83;4.93;;;12.80;90.20;;;;;;9175275;19;20025;-68
2023/01/04 18:39:58;;;;;;;25.63;4.85;;;12.80;90.20;;;;;;9176391;19;20041;-69
2023/01/04 18:43:02;;;;;;;32.75;4.28;;;12.80;90.20;;;;;;9175081;19;20018;-69
2023/01/04 18:46:09;;;;;;;32.78;4.22;;;12.70;90.20;;;;;;9175027;19;20074;-69
2023/01/04 18:49:11;;;;;;;27.65;5.30;;;12.70;90.10;;;;;;9169645;19;20025;-69
2023/01/04 18:52:13;;;;;;;22.92;4.15;;;12.70;90.10;;;;;;9173712;19;20102;-69
2023/01/04 18:55:14;;;;;;;28.77;3.60;;;12.70;90.10;;;;;;9173470;19;20206;-69
2023/01/04 18:58:16;;;;;;;24.65;4.22;;;12.70;90.10;;;;;;9172089;19;20024;-69
2023/01/04 19:01:19;;;;;;;23.20;3.60;;;12.70;90.10;;;;;;9171913;19;20391;-69
2023/01/04 19:04:20;;;;;;;28.60;4.95;;;12.70;90.10;;;;;;9173839;19;20081;-69
2023/01/04 19:07:22;;;;;;;32.13;4.80;;;12.60;90.10;;;;;;9174544;19;20022;-69
2023/01/04 19:10:23;;;;;;;19.98;4.43;;;12.60;90.10;;;;;;9174214;19;20030;-69
2023/01/04 19:13:25;;;;;;;37.85;5.00;;;12.60;90.10;;;;;;9172130;19;20029;-69
2023/01/04 19:16:29;;;;;;;24.92;3.75;;;12.60;90.10;;;;;;9174063;19;20018;-69